Time;durP1;ratioP1;P1;durP2;ratioP2;P2;SDS_P1;SDS_P2;PMS_P1;PMS_P2;Temp;Humidity;BMP_temperature;BMP_pressure;BME280_temperature;BME280_humidity;BME280_pressure;Samples;Min_cycle;Max_cycle;Signal;HPM_P1;HPM_P2
2024/03/13 00:00:42;;;;;;;;;;;7.10;99.90;;;6.41;100.00;97806.44;4950814;28;1582;-69
2024/03/13 00:03:10;;;;;;;;;;;7.10;99.90;;;6.45;100.00;97798.63;4943727;28;1481;-69
2024/03/13 00:05:36;;;;;;;;;;;7.10;99.90;;;6.43;100.00;97800.41;4951558;28;1854;-69
2024/03/13 00:08:05;;;;;;;;;;;7.10;99.90;;;6.44;100.00;97796.91;4951000;28;1916;-69
2024/03/13 00:10:32;;;;;;;;;;;7.20;99.90;;;6.55;100.00;97801.84;4946314;28;1467;-69
2024/03/13 00:12:59;;;;;;;;;;;7.10;99.90;;;6.47;100.00;97790.84;4944161;28;1927;-69
2024/03/13 00:15:26;;;;;;;;;;;7.20;99.90;;;6.47;100.00;97788.25;4945285;28;1408;-69
2024/03/13 00:17:53;;;;;;;;;;;7.20;99.90;;;6.49;100.00;97794.25;4946192;28;1420;-69
2024/03/13 00:20:20;;;;;;;;;;;7.20;99.90;;;6.54;100.00;97791.56;4945265;28;1765;-69
2024/03/13 00:22:47;;;;;;;;;;;7.20;99.90;;;6.54;100.00;97789.81;4943540;28;1384;-69
2024/03/13 00:25:15;;;;;;;;;;;7.20;99.90;;;6.57;100.00;97794.06;4944624;28;1392;-69
2024/03/13 00:27:45;;;;;;;;;;;7.30;99.90;;;6.53;100.00;97787.28;4953617;28;1471;-69
2024/03/13 00:30:13;;;;;;;;;;;7.20;99.90;;;6.63;100.00;97791.34;4951889;28;1440;-69
2024/03/13 00:32:41;;;;;;;;;;;7.20;99.90;;;6.65;100.00;97797.31;4947306;28;1926;-69
2024/03/13 00:35:08;;;;;;;;;;;7.20;99.90;;;6.69;100.00;97791.22;4946367;28;1514;-69
2024/03/13 00:37:35;;;;;;;;;;;7.20;99.90;;;6.60;100.00;97778.53;4946158;28;1394;-69
2024/03/13 00:40:03;;;;;;;;;;;7.20;99.90;;;6.61;100.00;97777.63;4950485;28;1622;-69
2024/03/13 00:42:30;;;;;;;;;;;7.20;99.90;;;6.69;100.00;97781.72;4948619;28;1950;-69
2024/03/13 00:44:57;;;;;;;;;;;7.30;99.90;;;6.66;100.00;97774.06;4954327;28;1460;-69
2024/03/13 00:47:24;;;;;;;;;;;7.30;99.90;;;6.64;100.00;97777.56;4947153;28;1357;-69
2024/03/13 00:49:54;;;;;;;;;;;7.30;99.90;;;6.68;100.00;97787.78;4941505;28;1396;-69
2024/03/13 00:52:21;;;;;;;;;;;7.30;99.90;;;6.66;100.00;97779.22;4941403;28;1972;-69
2024/03/13 00:54:50;;;;;;;;;;;7.30;99.90;;;6.72;100.00;97787.69;4959131;28;1423;-69
2024/03/13 00:57:18;;;;;;;;;;;7.40;99.90;;;6.69;100.00;97788.63;4940681;28;1487;-69
2024/03/13 00:59:46;;;;;;;;;;;7.40;99.90;;;6.72;100.00;97791.13;5022164;28;1440;-70
2024/03/13 01:02:13;;;;;;;;;;;7.50;99.90;;;6.73;100.00;97786.81;4950022;28;1444;-69
2024/03/13 01:04:42;;;;;;;;;;;7.50;99.90;;;6.74;100.00;97797.09;4952992;28;1396;-70
2024/03/13 01:07:09;;;;;;;;;;;7.50;99.90;;;6.78;100.00;97779.81;4946852;28;1408;-69
2024/03/13 01:09:38;;;;;;;;;;;7.50;99.90;;;6.77;100.00;97785.84;4953592;28;1380;-69
2024/03/13 01:12:06;;;;;;;;;;;7.60;99.90;;;6.78;100.00;97791.00;4944327;28;1416;-69
2024/03/13 01:14:33;;;;;;;;;;;7.50;99.90;;;6.80;100.00;97789.22;4948707;28;1911;-69
2024/03/13 01:17:02;;;;;;;;;;;7.50;99.90;;;6.98;100.00;97785.34;4945590;28;1439;-70
2024/03/13 01:19:33;;;;;;;;;;;7.50;99.90;;;7.02;100.00;97774.03;4947431;28;1380;-70
2024/03/13 01:22:05;;;;;;;;;;;7.60;99.90;;;6.91;100.00;97778.63;4942205;28;1435;-69
2024/03/13 01:24:33;;;;;;;;;;;7.60;99.90;;;6.91;100.00;97776.91;4955429;28;1463;-69
2024/03/13 01:27:00;;;;;;;;;;;7.60;99.90;;;6.88;100.00;97769.22;4943490;28;1435;-69
2024/03/13 01:29:27;;;;;;;;;;;7.60;99.90;;;6.87;100.00;97770.13;4946548;28;1565;-69
2024/03/13 01:31:57;;;;;;;;;;;7.60;99.90;;;7.01;100.00;97768.94;4949300;28;1491;-69
2024/03/13 01:34:24;;;;;;;;;;;7.70;99.90;;;6.84;100.00;97772.78;4965617;28;1903;-69
2024/03/13 01:39:38;;;;;;;;;;;7.60;99.90;;;6.84;100.00;97766.75;4945388;28;1405;-69
2024/03/13 01:56:24;;;;;;;;;;;7.70;99.90;;;7.00;100.00;97754.31;4950157;28;1251;-69
2024/03/13 01:59:02;;;;;;;;;;;7.60;99.90;;;7.01;100.00;97751.72;4954221;28;1247;-69
2024/03/13 02:04:16;;;;;;;;;;;7.70;99.90;;;7.01;100.00;97753.44;4947495;28;1326;-69
2024/03/13 02:06:45;;;;;;;;;;;7.70;99.90;;;7.01;100.00;97750.88;4954338;28;1318;-69
2024/03/13 02:09:12;;;;;;;;;;;7.70;99.90;;;7.03;100.00;97754.25;4948630;28;1296;-69
2024/03/13 02:11:39;;;;;;;;;;;7.70;99.90;;;6.99;100.00;97750.91;4935419;28;1375;-69
2024/03/13 02:14:06;;;;;;;;;;;7.70;99.90;;;6.99;100.00;97745.72;4952667;28;1903;-69
2024/03/13 02:16:32;;;;;;;;;;;7.80;99.90;;;6.93;100.00;97747.63;4945032;28;1329;-69
2024/03/13 02:19:01;;;;;;;;;;;7.70;99.90;;;7.07;100.00;97745.53;4953920;28;1207;-69
2024/03/13 02:21:28;;;;;;;;;;;7.80;99.90;;;7.03;100.00;97743.94;4945628;28;1468;-69
2024/03/13 02:23:56;;;;;;;;;;;7.70;99.90;;;7.09;100.00;97746.34;4950078;28;1299;-69
2024/03/13 02:26:24;;;;;;;;;;;7.70;99.90;;;6.99;100.00;97743.16;4958353;28;1184;-69
2024/03/13 02:28:52;;;;;;;;;;;7.80;99.90;;;7.04;100.00;97738.72;4972058;28;1115;-69
2024/03/13 02:31:19;;;;;;;;;;;7.80;99.90;;;7.02;100.00;97742.22;4947086;28;1439;-69
2024/03/13 02:33:47;;;;;;;;;;;7.70;99.90;;;7.12;100.00;97739.38;4945933;28;1990;-69
2024/03/13 02:36:14;;;;;;;;;;;7.80;99.90;;;7.13;100.00;97743.63;4947452;28;1306;-69
2024/03/13 02:38:41;;;;;;;;;;;7.80;99.90;;;7.10;100.00;97745.47;4953635;28;1311;-69
2024/03/13 02:41:07;;;;;;;;;;;7.80;99.90;;;7.13;100.00;97740.22;4947451;28;1244;-69
2024/03/13 02:43:36;;;;;;;;;;;7.80;99.90;;;7.06;100.00;97741.25;4947038;28;1486;-69
2024/03/13 02:46:04;;;;;;;;;;;7.80;99.90;;;7.05;100.00;97737.84;4951517;28;1334;-69
2024/03/13 02:48:31;;;;;;;;;;;7.80;99.90;;;7.21;100.00;97740.03;4962101;28;2405;-69
2024/03/13 02:50:57;;;;;;;;;;;7.80;99.90;;;7.18;100.00;97743.50;4951884;28;1377;-69
2024/03/13 02:53:24;;;;;;;;;;;7.80;99.90;;;7.20;100.00;97741.75;4947569;28;1989;-69
2024/03/13 02:55:53;;;;;;;;;;;7.80;99.90;;;7.23;100.00;97745.97;4961192;28;1263;-67
2024/03/13 02:58:21;;;;;;;;;;;7.80;99.90;;;7.21;100.00;97748.63;4948818;28;1247;-69
2024/03/13 03:00:48;;;;;;;;;;;7.80;99.90;;;7.25;100.00;97750.22;4944055;28;1399;-70
2024/03/13 03:03:16;;;;;;;;;;;7.90;99.90;;;7.27;100.00;97745.00;4952004;28;1424;-70
2024/03/13 03:05:45;;;;;;;;;;;7.90;99.90;;;7.28;100.00;97747.56;4948548;28;1286;-70
2024/03/13 03:08:12;;;;;;;;;;;7.90;99.90;;;7.35;100.00;97747.41;4946762;28;1396;-70
2024/03/13 03:10:40;;;;;;;;;;;7.90;99.90;;;7.36;100.00;97749.94;4978214;28;1284;-70
2024/03/13 03:13:08;;;;;;;;;;;8.00;99.90;;;7.35;100.00;97753.41;4945679;28;1911;-68
2024/03/13 03:15:38;;;;;;;;;;;8.00;99.90;;;7.28;100.00;97750.16;4951939;28;1941;-67
2024/03/13 03:18:05;;;;;;;;;;;7.90;99.90;;;7.25;100.00;97745.06;4946917;28;1314;-68
2024/03/13 03:20:32;;;;;;;;;;;7.90;99.90;;;7.26;100.00;97751.91;4947518;28;1316;-68
2024/03/13 03:22:59;;;;;;;;;;;7.90;99.90;;;7.36;100.00;97749.09;4947255;28;1297;-70
2024/03/13 03:25:28;;;;;;;;;;;7.90;99.90;;;7.20;100.00;97749.47;4952901;28;1552;-70
2024/03/13 03:27:57;;;;;;;;;;;7.90;99.90;;;7.20;100.00;97753.81;4957764;28;1410;-69
2024/03/13 03:30:25;;;;;;;;;;;7.90;99.90;;;7.30;100.00;97753.53;4947388;28;1398;-70
2024/03/13 03:32:53;;;;;;;;;;;7.90;99.90;;;7.33;100.00;97761.19;4947436;28;1906;-69
2024/03/13 03:35:20;;;;;;;;;;;7.90;99.90;;;7.43;100.00;97758.34;4951713;28;1398;-69
2024/03/13 03:37:47;;;;;;;;;;;8.00;99.90;;;7.47;100.00;97754.81;4946459;28;1314;-70
2024/03/13 03:40:15;;;;;;;;;;;7.90;99.90;;;7.32;100.00;97758.63;4940577;28;1512;-69
2024/03/13 03:42:43;;;;;;;;;;;8.00;99.90;;;7.43;100.00;97754.03;4945599;28;1333;-68
2024/03/13 03:45:11;;;;;;;;;;;7.90;99.90;;;7.53;100.00;97752.91;4954542;28;1257;-69
2024/03/13 03:47:39;;;;;;;;;;;8.00;99.90;;;7.54;100.00;97758.91;4951505;28;1396;-70
2024/03/13 03:50:07;;;;;;;;;;;7.90;99.90;;;7.51;100.00;97751.25;4945753;28;1564;-69
2024/03/13 03:52:34;;;;;;;;;;;7.90;99.90;;;7.35;100.00;97748.25;4946553;28;1774;-69
2024/03/13 03:55:02;;;;;;;;;;;7.90;99.90;;;7.46;100.00;97746.22;4943096;28;1982;-69
2024/03/13 03:57:29;;;;;;;;;;;7.90;99.90;;;7.35;100.00;97750.00;4943907;28;1265;-69
2024/03/13 03:59:56;;;;;;;;;;;7.90;99.90;;;7.30;100.00;97744.94;4947823;28;1357;-69
2024/03/13 04:02:23;;;;;;;;;;;7.90;99.90;;;7.45;100.00;97756.59;4945316;28;1383;-69
2024/03/13 04:04:50;;;;;;;;;;;7.90;99.90;;;7.49;100.00;97751.28;4969085;28;1638;-69
2024/03/13 04:07:17;;;;;;;;;;;7.90;99.90;;;7.57;100.00;97753.66;4940860;28;1404;-69
2024/03/13 04:09:44;;;;;;;;;;;7.90;99.90;;;7.41;100.00;97748.09;4944901;28;1477;-69
2024/03/13 04:12:11;;;;;;;;;;;7.90;99.90;;;7.37;100.00;97753.34;4945504;28;1403;-69
2024/03/13 04:14:38;;;;;;;;;;;8.00;99.90;;;7.49;100.00;97753.03;4942039;28;1915;-69
2024/03/13 04:17:05;;;;;;;;;;;8.00;99.90;;;7.58;100.00;97762.28;4945711;28;1377;-69
2024/03/13 04:19:32;;;;;;;;;;;8.00;99.90;;;7.65;100.00;97746.56;4958597;28;1350;-70
2024/03/13 04:21:58;;;;;;;;;;;8.00;99.90;;;7.61;100.00;97760.44;4940791;28;1432;-69
2024/03/13 04:24:26;;;;;;;;;;;8.10;99.90;;;7.71;100.00;97758.47;4949609;28;1915;-68
2024/03/13 04:26:53;;;;;;;;;;;;;;;7.60;100.00;97760.50;4943035;28;1334;-69
2024/03/13 04:29:20;;;;;;;;;;;8.10;99.90;;;7.66;100.00;97757.72;4960577;28;2055;-70
2024/03/13 04:31:57;;;;;;;;;;;8.20;99.90;;;7.67;100.00;97759.44;4956798;28;1284;-70
2024/03/13 04:34:24;;;;;;;;;;;8.10;99.90;;;7.59;100.00;97757.03;4945782;28;1912;-69
2024/03/13 04:36:51;;;;;;;;;;;8.10;99.90;;;7.73;100.00;97765.28;4946055;28;1314;-69
2024/03/13 04:39:18;;;;;;;;;;;8.20;99.90;;;7.72;100.00;97767.91;4964861;28;1339;-70
2024/03/13 04:41:45;;;;;;;;;;;8.30;99.90;;;7.72;100.00;97766.16;4950079;28;1348;-69
2024/03/13 04:44:12;;;;;;;;;;;8.30;99.90;;;7.65;100.00;97769.81;4948219;28;1540;-70
2024/03/13 04:46:39;;;;;;;;;;;8.20;99.90;;;7.71;100.00;97767.06;4949520;28;1287;-68
2024/03/13 04:49:10;;;;;;;;;;;8.30;99.90;;;7.77;100.00;97775.53;4946371;28;1378;-69
2024/03/13 04:51:38;;;;;;;;;;;8.30;99.90;;;7.79;100.00;97774.56;4952853;28;1516;-68
2024/03/13 04:54:06;;;;;;;;;;;8.30;99.90;;;7.68;100.00;97780.03;4950861;28;1999;-68
2024/03/13 04:56:34;;;;;;;;;;;8.30;99.90;;;7.73;100.00;97779.91;4955951;28;1317;-70
2024/03/13 04:59:00;;;;;;;;;;;8.30;99.90;;;7.72;100.00;97776.47;4952032;28;1417;-69
2024/03/13 05:01:27;;;;;;;;;;;8.30;99.90;;;7.80;100.00;97778.88;4953003;28;1352;-69
2024/03/13 05:03:54;;;;;;;;;;;8.30;99.90;;;7.68;100.00;97780.03;4946438;28;1262;-70
2024/03/13 05:06:21;;;;;;;;;;;8.20;99.90;;;7.70;100.00;97777.41;4953911;28;1460;-69
2024/03/13 05:08:48;;;;;;;;;;;8.30;99.90;;;7.59;100.00;97785.47;4954184;28;1493;-70
2024/03/13 05:11:17;;;;;;;;;;;8.30;99.90;;;7.65;100.00;97787.88;4950528;28;1493;-70
2024/03/13 05:13:45;;;;;;;;;;;8.30;99.90;;;7.66;100.00;97784.44;4954189;28;1939;-67
2024/03/13 05:16:13;;;;;;;;;;;8.30;99.90;;;7.68;100.00;97789.53;4946605;28;1438;-70
2024/03/13 05:18:40;;;;;;;;;;;8.30;99.90;;;7.68;100.00;97795.53;4954033;28;1291;-69
2024/03/13 05:21:06;;;;;;;;;;;8.30;99.90;;;7.71;100.00;97789.47;4948171;28;1324;-70
2024/03/13 05:23:33;;;;;;;;;;;8.20;99.90;;;7.73;100.00;97790.25;4936907;28;1399;-70
2024/03/13 05:26:00;;;;;;;;;;;8.30;99.90;;;7.69;100.00;97797.25;4955925;28;1278;-70
2024/03/13 05:28:28;;;;;;;;;;;8.30;99.90;;;7.83;100.00;97798.59;4958139;28;1729;-69
2024/03/13 05:30:55;;;;;;;;;;;8.30;99.90;;;7.79;100.00;97803.00;4946562;28;1598;-68
2024/03/13 05:33:22;;;;;;;;;;;8.30;99.90;;;7.87;100.00;97803.66;4954724;28;1893;-69
2024/03/13 05:35:49;;;;;;;;;;;8.30;99.90;;;7.81;100.00;97801.22;4952637;28;1443;-69
2024/03/13 05:38:16;;;;;;;;;;;8.40;99.90;;;8.04;100.00;97805.75;4955016;28;1501;-69
2024/03/13 05:40:43;;;;;;;;;;;8.40;99.90;;;7.95;100.00;97803.41;4951734;28;1499;-69
2024/03/13 05:43:11;;;;;;;;;;;8.50;99.90;;;7.94;100.00;97799.16;4946394;28;1628;-69
2024/03/13 05:45:38;;;;;;;;;;;8.50;99.90;;;7.99;100.00;97810.22;4948384;28;1244;-69
2024/03/13 05:48:06;;;;;;;;;;;8.60;99.90;;;8.09;100.00;97816.78;4951192;28;1349;-69
2024/03/13 05:50:33;;;;;;;;;;;8.70;99.90;;;8.18;100.00;97821.69;4945475;28;1305;-70
2024/03/13 05:53:00;;;;;;;;;;;8.70;99.90;;;8.17;100.00;97820.00;4946244;28;1263;-69
2024/03/13 05:55:27;;;;;;;;;;;8.80;99.90;;;8.15;100.00;97824.38;4954116;28;1985;-70
2024/03/13 05:57:54;;;;;;;;;;;8.80;99.90;;;8.29;100.00;97828.31;4942949;28;1309;-69
2024/03/13 06:00:22;;;;;;;;;;;8.80;99.90;;;8.29;100.00;97826.56;4960728;28;1373;-69
2024/03/13 06:02:49;;;;;;;;;;;8.80;99.90;;;8.34;100.00;97829.00;4944548;28;1532;-67
2024/03/13 06:05:16;;;;;;;;;;;8.90;99.90;;;8.37;100.00;97831.53;4944837;28;1179;-69
2024/03/13 06:07:44;;;;;;;;;;;8.90;99.90;;;8.37;100.00;97834.13;4955372;28;1705;-69
2024/03/13 06:10:11;;;;;;;;;;;9.00;99.90;;;8.32;100.00;97828.22;4951310;28;1202;-69
2024/03/13 06:12:38;;;;;;;;;;;8.90;99.90;;;8.42;100.00;97836.59;4947203;28;1480;-69
2024/03/13 06:15:13;;;;;;;;;;;9.00;99.90;;;8.45;100.00;97837.34;4941400;28;1914;-69
2024/03/13 06:17:41;;;;;;;;;;;9.00;99.90;;;8.70;100.00;97841.78;4941342;28;1254;-69
2024/03/13 06:20:17;;;;;;;;;;;9.10;99.90;;;8.68;100.00;97844.41;4945143;28;1270;-69
2024/03/13 06:22:45;;;;;;;;;;;9.10;99.90;;;8.75;100.00;97848.47;4942211;28;1118;-69
2024/03/13 06:25:12;;;;;;;;;;;9.20;99.90;;;8.72;100.00;97840.81;4939999;28;1074;-69
2024/03/13 06:27:40;;;;;;;;;;;9.20;99.90;;;8.69;100.00;97853.00;4943347;28;1080;-69
2024/03/13 06:30:08;;;;;;;;;;;9.30;99.90;;;8.71;100.00;97848.63;4944030;28;1255;-69
2024/03/13 06:32:36;;;;;;;;;;;9.30;99.90;;;8.81;100.00;97852.66;4948709;28;1410;-69
2024/03/13 06:35:04;;;;;;;;;;;9.30;99.90;;;8.78;100.00;97848.41;4950427;28;1989;-69
2024/03/13 06:37:34;;;;;;;;;;;9.30;99.90;;;8.76;100.00;97846.78;4952511;28;1403;-69
2024/03/13 06:40:03;;;;;;;;;;;9.40;99.90;;;8.86;100.00;97853.34;4941008;28;1124;-69
2024/03/13 06:42:31;;;;;;;;;;;9.40;99.90;;;8.89;100.00;97854.97;4978865;28;1465;-69
2024/03/13 06:44:58;;;;;;;;;;;9.50;99.90;;;9.11;100.00;97856.00;4946719;28;1439;-69
2024/03/13 06:47:25;;;;;;;;;;;9.50;99.90;;;9.04;100.00;97853.66;4944762;28;1592;-69
2024/03/13 06:49:52;;;;;;;;;;;9.60;99.90;;;9.10;100.00;97858.63;4945766;28;1003;-69
2024/03/13 06:52:18;;;;;;;;;;;9.50;99.90;;;9.05;100.00;97857.94;4958357;28;1268;-69
2024/03/13 06:54:45;;;;;;;;;;;9.60;99.90;;;9.20;100.00;97857.44;4948389;28;1906;-69
2024/03/13 06:57:12;;;;;;;;;;;9.60;99.90;;;9.26;100.00;97869.34;4937699;28;1018;-69
2024/03/13 06:59:41;;;;;;;;;;;9.70;99.90;;;9.28;100.00;97863.19;4950960;28;1088;-69
2024/03/13 07:02:13;;;;;;;;;;;9.70;99.90;;;9.20;100.00;97863.47;4939886;28;1413;-69
2024/03/13 07:04:40;;;;;;;;;;;9.70;99.90;;;9.33;100.00;97874.28;4952626;28;1115;-69
2024/03/13 07:07:07;;;;;;;;;;;9.70;99.90;;;9.39;100.00;97870.63;4942293;28;1216;-69
2024/03/13 07:09:36;;;;;;;;;;;9.80;99.90;;;9.54;100.00;97871.88;4953602;28;1333;-69
2024/03/13 07:12:04;;;;;;;;;;;9.80;99.90;;;9.66;100.00;97873.19;4945085;28;1324;-69
2024/03/13 07:14:31;;;;;;;;;;;10.00;99.90;;;9.60;100.00;97880.28;4945104;28;1926;-69
2024/03/13 07:16:58;;;;;;;;;;;10.00;99.90;;;9.72;100.00;97870.41;4943393;28;1363;-69
2024/03/13 07:19:25;;;;;;;;;;;10.00;99.90;;;9.70;100.00;97872.19;4951879;28;1932;-69
2024/03/13 07:21:52;;;;;;;;;;;10.00;99.90;;;9.69;100.00;97879.09;4937456;28;1351;-69
2024/03/13 07:24:19;;;;;;;;;;;10.10;99.90;;;9.66;100.00;97878.38;4940032;28;1288;-69
2024/03/13 07:26:46;;;;;;;;;;;10.10;99.90;;;9.61;100.00;97879.38;4940353;28;1908;-69
2024/03/13 07:29:13;;;;;;;;;;;10.10;99.90;;;9.74;100.00;97881.53;4941169;28;2046;-70
2024/03/13 07:31:40;;;;;;;;;;;10.10;99.90;;;9.69;100.00;97881.69;4958755;28;1395;-70
2024/03/13 07:34:09;;;;;;;;;;;10.10;99.90;;;9.77;100.00;97882.31;4944363;28;1911;-67
2024/03/13 07:36:38;;;;;;;;;;;10.10;99.90;;;9.77;100.00;97890.06;4950674;28;1130;-70
2024/03/13 07:39:10;;;;;;;;;;;10.10;99.90;;;9.87;100.00;97884.56;4951566;28;1257;-70
2024/03/13 07:41:39;;;;;;;;;;;10.20;99.90;;;9.99;100.00;97891.91;4946643;28;1288;-69
2024/03/13 07:44:07;;;;;;;;;;;10.20;99.90;;;9.99;100.00;97884.13;4946953;28;1326;-70
2024/03/13 07:46:34;;;;;;;;;;;10.20;99.90;;;9.99;100.00;97890.19;4945314;28;1102;-70
2024/03/13 07:49:02;;;;;;;;;;;10.30;99.90;;;10.04;100.00;97890.03;4942151;28;1233;-70
2024/03/13 07:51:29;;;;;;;;;;;10.40;99.90;;;9.95;100.00;97887.75;4953417;28;1409;-69
2024/03/13 07:53:56;;;;;;;;;;;10.40;99.90;;;10.05;100.00;97887.34;4942276;28;1225;-70
2024/03/13 07:56:23;;;;;;;;;;;10.30;99.90;;;10.12;100.00;97889.75;4942192;28;1997;-70
2024/03/13 07:58:51;;;;;;;;;;;10.30;99.90;;;10.09;100.00;97895.03;4955412;28;1075;-70
2024/03/13 08:01:18;;;;;;;;;;;10.40;99.90;;;10.12;100.00;97900.13;4943396;28;1292;-69
2024/03/13 08:03:45;;;;;;;;;;;10.40;99.90;;;10.04;100.00;97896.06;4972555;28;1177;-69
2024/03/13 08:06:12;;;;;;;;;;;10.40;99.90;;;10.20;100.00;97901.53;4945795;28;1152;-69
2024/03/13 08:08:56;;;;;;;;;;;10.50;99.90;;;10.08;100.00;97898.53;4946189;28;1182;-70
2024/03/13 08:11:40;;;;;;;;;;;10.50;99.90;;;10.16;100.00;97904.31;4945643;28;1351;-69
2024/03/13 08:14:24;;;;;;;;;;;10.50;99.90;;;10.26;100.00;97908.25;4962289;28;1916;-70
2024/03/13 08:17:10;;;;;;;;;;;10.50;99.90;;;10.22;100.00;97911.88;4937697;28;805;-69
2024/03/13 08:19:54;;;;;;;;;;;10.40;99.90;;;10.07;100.00;97904.63;4946609;28;1051;-69
2024/03/13 08:22:42;;;;;;;;;;;10.40;99.90;;;10.11;100.00;97914.00;4941889;28;1533;-70
2024/03/13 08:25:26;;;;;;;;;;;10.40;99.90;;;10.10;100.00;97913.13;4944574;28;1143;-69
2024/03/13 08:28:10;;;;;;;;;;;10.40;99.90;;;10.09;100.00;97918.38;4942633;28;1234;-70
2024/03/13 08:30:58;;;;;;;;;;;10.40;99.90;;;10.11;100.00;97920.03;4939379;28;1314;-70
2024/03/13 08:33:43;;;;;;;;;;;10.40;99.90;;;10.19;100.00;97918.00;4957099;28;1109;-69
2024/03/13 08:36:27;;;;;;;;;;;10.50;99.90;;;10.44;100.00;97920.56;4943268;28;1930;-69
2024/03/13 08:39:16;;;;;;;;;;;10.50;99.90;;;10.31;100.00;97927.13;4942444;28;1142;-69
2024/03/13 08:42:01;;;;;;;;;;;10.50;99.90;;;10.34;100.00;97937.41;4940221;28;1269;-69
2024/03/13 08:44:47;;;;;;;;;;;10.60;99.90;;;10.38;100.00;97933.78;4948145;28;1095;-70
2024/03/13 08:47:31;;;;;;;;;;;10.60;99.90;;;10.33;100.00;97940.91;4941718;28;1074;-69
2024/03/13 08:50:15;;;;;;;;;;;10.50;99.90;;;10.08;100.00;97938.31;4936457;28;1051;-70
2024/03/13 08:53:00;;;;;;;;;;;10.50;99.90;;;10.21;100.00;97944.72;4950069;28;1058;-70
2024/03/13 08:55:45;;;;;;;;;;;10.40;99.90;;;10.14;100.00;97939.81;4946656;28;1915;-70
2024/03/13 08:58:29;;;;;;;;;;;10.40;99.90;;;10.00;100.00;97950.66;4937146;28;1090;-70
2024/03/13 09:01:14;;;;;;;;;;;10.40;99.90;;;10.09;100.00;97954.69;4944939;28;1361;-69
2024/03/13 09:03:58;;;;;;;;;;;10.30;99.90;;;10.04;100.00;97960.06;4942296;28;1170;-69
2024/03/13 09:06:43;;;;;;;;;;;10.30;99.90;;;10.07;100.00;97956.50;4941700;28;2054;-70
2024/03/13 09:09:10;;;;;;;;;;;10.40;99.90;;;10.16;100.00;97964.78;4925814;28;1218;-70
2024/03/13 09:11:36;;;;;;;;;;;10.40;99.90;;;10.12;100.00;97968.41;4936187;28;1272;-70
2024/03/13 09:14:07;;;;;;;;;;;10.40;99.90;;;10.18;100.00;97967.34;4938829;28;1281;-70
2024/03/13 09:16:35;;;;;;;;;;;10.40;99.90;;;10.36;100.00;97971.09;4947840;28;1973;-70
2024/03/13 09:19:03;;;;;;;;;;;10.50;99.90;;;10.42;100.00;97968.25;4938859;28;1210;-69
2024/03/13 09:21:31;;;;;;;;;;;10.50;99.90;;;10.28;100.00;97960.94;4948228;28;1361;-70
2024/03/13 09:23:58;;;;;;;;;;;10.60;99.90;;;10.38;100.00;97966.69;4944409;28;1083;-70
2024/03/13 09:26:26;;;;;;;;;;;10.70;99.90;;;10.61;100.00;97964.09;4941088;28;1146;-70
2024/03/13 09:28:55;;;;;;;;;;;10.80;99.90;;;10.75;100.00;97967.94;4940438;28;1269;-69
2024/03/13 09:31:24;;;;;;;;;;;10.80;99.90;;;10.89;100.00;97963.91;4949633;28;1432;-69
2024/03/13 09:33:51;;;;;;;;;;;10.80;99.90;;;10.93;100.00;97962.06;4942967;28;1237;-70
2024/03/13 09:36:18;;;;;;;;;;;10.90;99.90;;;11.01;100.00;97954.81;4943342;28;1907;-70
2024/03/13 09:38:45;;;;;;;;;;;11.00;99.90;;;11.11;100.00;97947.53;4943188;28;1389;-70
2024/03/13 09:41:13;;;;;;;;;;;11.00;99.90;;;10.89;100.00;97956.13;4944675;28;1548;-70
2024/03/13 09:43:40;;;;;;;;;;;11.00;99.90;;;11.12;100.00;97959.59;4944927;28;1138;-70
2024/03/13 09:46:09;;;;;;;;;;;11.10;99.90;;;11.08;100.00;97951.09;4940729;28;1939;-70
2024/03/13 09:48:39;;;;;;;;;;;11.20;99.90;;;11.23;100.00;97954.84;4928125;28;1250;-69
2024/03/13 09:51:08;;;;;;;;;;;11.30;99.90;;;11.36;100.00;97939.63;4952123;28;1315;-70
2024/03/13 09:53:41;;;;;;;;;;;11.40;99.90;;;11.42;100.00;97952.34;4948435;28;1095;-69
2024/03/13 09:56:14;;;;;;;;;;;11.40;99.90;;;11.91;100.00;97945.19;4970061;28;1914;-70
2024/03/13 09:58:45;;;;;;;;;;;11.60;99.90;;;11.79;100.00;97935.25;4946798;28;1180;-69
2024/03/13 10:01:19;;;;;;;;;;;11.90;99.90;;;11.76;100.00;97932.78;4943688;28;1419;-69
2024/03/13 10:03:53;;;;;;;;;;;12.00;99.90;;;11.98;100.00;97937.97;4963448;28;1191;-69
2024/03/13 10:06:24;;;;;;;;;;;12.00;99.90;;;12.00;100.00;97919.69;4948546;28;1110;-69
2024/03/13 10:08:53;;;;;;;;;;;12.10;99.90;;;12.04;100.00;97919.50;4944445;28;1130;-69
2024/03/13 10:11:23;;;;;;;;;;;12.00;99.90;;;11.85;100.00;97921.16;4944509;28;1300;-69
2024/03/13 10:13:51;;;;;;;;;;;12.10;99.90;;;11.79;100.00;97906.66;4940902;28;1204;-69
2024/03/13 10:16:22;;;;;;;;;;;12.10;99.90;;;11.77;100.00;97918.00;4943176;28;1943;-69
2024/03/13 10:18:51;;;;;;;;;;;12.00;99.90;;;11.85;100.00;97918.53;4942867;28;1368;-69
2024/03/13 10:21:25;;;;;;;;;;;11.90;99.90;;;11.95;100.00;97916.41;4975380;28;1272;-69
2024/03/13 10:23:56;;;;;;;;;;;11.90;99.90;;;11.69;100.00;97918.34;4971464;28;1205;-70
2024/03/13 10:26:24;;;;;;;;;;;11.90;99.90;;;11.46;100.00;97921.88;4939123;28;1372;-69
2024/03/13 10:28:51;;;;;;;;;;;11.80;99.90;;;11.32;100.00;97927.66;4949484;28;1097;-69
2024/03/13 10:31:18;;;;;;;;;;;11.80;99.90;;;11.66;100.00;97926.28;4963747;28;1368;-69
2024/03/13 10:33:45;;;;;;;;;;;11.80;99.90;;;11.87;100.00;97924.53;4977151;28;1125;-69
2024/03/13 10:36:13;;;;;;;;;;;11.80;99.90;;;12.25;100.00;97917.72;4943357;28;1979;-69
2024/03/13 10:38:41;;;;;;;;;;;12.00;99.90;;;12.07;100.00;97919.34;4955950;28;1359;-69
2024/03/13 10:41:11;;;;;;;;;;;12.00;99.90;;;12.37;100.00;97897.25;4941193;28;1367;-70
2024/03/13 10:43:38;;;;;;;;;;;12.00;99.90;;;12.05;100.00;97886.50;4928201;28;1110;-69
2024/03/13 10:46:05;;;;;;;;;;;12.00;99.90;;;12.08;100.00;97897.63;4943419;28;1249;-69
2024/03/13 10:48:32;;;;;;;;;;;12.10;99.90;;;12.16;100.00;97894.69;4947915;28;1115;-69
2024/03/13 10:51:02;;;;;;;;;;;12.20;99.90;;;12.18;100.00;97898.06;4940587;28;1344;-69
2024/03/13 10:53:32;;;;;;;;;;;12.30;99.90;;;12.31;100.00;97896.59;4942880;28;1292;-69
2024/03/13 10:55:58;;;;;;;;;;;12.40;99.90;;;12.40;100.00;97877.13;4959787;28;1927;-69
2024/03/13 10:58:25;;;;;;;;;;;12.60;99.90;;;12.62;100.00;97876.16;4944913;28;1612;-69
2024/03/13 11:00:54;;;;;;;;;;;12.80;99.90;;;12.86;100.00;97864.56;4947677;28;1336;-69
2024/03/13 11:03:22;;;;;;;;;;;12.80;99.90;;;12.96;100.00;97871.06;4950028;28;1663;-69
2024/03/13 11:05:50;;;;;;;;;;;12.70;99.90;;;12.59;100.00;97865.88;4939915;28;1378;-70
2024/03/13 11:08:17;;;;;;;;;;;12.70;99.90;;;12.68;100.00;97875.84;4950867;28;1608;-69
2024/03/13 11:10:46;;;;;;;;;;;12.90;99.90;;;12.97;100.00;97872.72;4952629;28;1292;-69
2024/03/13 11:13:32;;;;;;;;;;;13.00;99.90;;;12.91;100.00;97880.84;4957679;28;1310;-69
2024/03/13 11:16:02;;;;;;;;;;;13.00;99.90;;;12.60;100.00;97881.44;4956294;28;1899;-69
2024/03/13 11:18:29;;;;;;;;;;;12.80;99.90;;;12.47;100.00;97881.13;4950909;28;1360;-69
2024/03/13 11:21:05;;;;;;;;;;;12.60;99.90;;;12.50;100.00;97878.41;4956661;28;1378;-69
2024/03/13 11:23:36;;;;;;;;;;;12.50;99.90;;;12.31;100.00;97875.78;4933163;28;1550;-69
2024/03/13 11:26:04;;;;;;;;;;;12.50;99.90;;;12.17;100.00;97878.16;4940420;28;1293;-69
2024/03/13 11:28:32;;;;;;;;;;;12.50;99.90;;;12.17;100.00;97880.75;4948297;28;1220;-69
2024/03/13 11:31:00;;;;;;;;;;;12.40;99.90;;;11.98;100.00;97893.72;4929231;28;1396;-69
2024/03/13 11:33:28;;;;;;;;;;;12.20;99.90;;;11.57;100.00;97908.47;4948700;28;1362;-69
2024/03/13 11:35:58;;;;;;;;;;;12.10;99.90;;;11.48;100.00;97913.13;4946441;28;2009;-69
2024/03/13 11:38:25;;;;;;;;;;;12.00;99.90;;;11.80;100.00;97923.09;4946369;28;1321;-69
2024/03/13 11:40:54;;;;;;;;;;;12.10;99.90;;;11.99;100.00;97912.78;4951934;28;1516;-69
2024/03/13 11:43:22;;;;;;;;;;;12.00;99.90;;;11.97;100.00;97923.25;4950783;28;1448;-70
2024/03/13 11:45:49;;;;;;;;;;;12.10;99.90;;;11.95;100.00;97919.88;4960252;28;1306;-69
2024/03/13 11:48:18;;;;;;;;;;;12.10;99.90;;;11.91;100.00;97926.97;4949691;28;1307;-69
2024/03/13 11:51:00;;;;;;;;;;;12.10;99.90;;;12.04;100.00;97916.03;4944012;28;1412;-69
2024/03/13 11:53:33;;;;;;;;;;;12.10;99.90;;;11.88;100.00;97931.44;4975425;28;1338;-69
2024/03/13 11:56:10;;;;;;;;;;;12.10;99.90;;;11.59;100.00;97924.84;4961641;28;1992;-69